Time;durP1;ratioP1;P1;durP2;ratioP2;P2;SDS_P1;SDS_P2;PMS_P1;PMS_P2;Temp;Humidity;BMP_temperature;BMP_pressure;BME280_temperature;BME280_humidity;BME280_pressure;Samples;Min_cycle;Max_cycle;Signal;HPM_P1;HPM_P2
2021/01/06 00:01:41;;;;;;;6.07;5.47;;;1.50;99.90;;;;;;4864462;29;20508;-77
2021/01/06 00:04:06;;;;;;;7.05;5.68;;;1.50;99.90;;;;;;4871979;29;20408;-80
2021/01/06 00:06:34;;;;;;;7.85;5.55;;;1.50;99.90;;;;;;4877192;28;20412;-76
2021/01/06 00:08:59;;;;;;;6.93;5.20;;;1.50;99.90;;;;;;4871869;29;20407;-77
2021/01/06 00:11:36;;;;;;;6.85;4.95;;;1.50;99.90;;;;;;4873658;29;20432;-77
2021/01/06 00:14:05;;;;;;;6.07;5.43;;;1.50;99.90;;;;;;4853931;29;20415;-77
2021/01/06 00:16:31;;;;;;;6.90;5.47;;;1.50;99.90;;;;;;4844178;29;20418;-76
2021/01/06 00:18:56;;;;;;;6.70;5.38;;;1.50;99.90;;;;;;4878563;28;20431;-77
2021/01/06 00:21:22;;;;;;;6.53;5.17;;;1.60;99.90;;;;;;4859214;29;20447;-76
2021/01/06 00:23:48;;;;;;;5.80;5.00;;;1.60;99.90;;;;;;4863791;28;20418;-76
2021/01/06 00:26:14;;;;;;;6.07;5.13;;;1.60;99.90;;;;;;4862824;29;20776;-77
2021/01/06 00:28:40;;;;;;;6.07;5.38;;;1.60;99.90;;;;;;4878298;29;20966;-77
2021/01/06 00:31:05;;;;;;;6.00;5.40;;;1.60;99.90;;;;;;4856193;29;20405;-76
2021/01/06 00:33:32;;;;;;;6.23;5.10;;;1.60;99.90;;;;;;4863017;29;21313;-77
2021/01/06 00:35:59;;;;;;;7.05;5.60;;;1.60;99.90;;;;;;4864398;29;20411;-77
2021/01/06 00:38:26;;;;;;;5.30;4.75;;;1.60;99.90;;;;;;4862851;29;20413;-76
2021/01/06 00:40:51;;;;;;;5.30;4.78;;;1.60;99.90;;;;;;4859300;29;20401;-77
2021/01/06 00:43:17;;;;;;;7.37;5.63;;;1.60;99.90;;;;;;4891564;28;20429;-77
2021/01/06 00:45:43;;;;;;;7.03;5.60;;;1.60;99.90;;;;;;4942291;28;20477;-75
2021/01/06 00:48:09;;;;;;;6.13;5.35;;;1.60;99.90;;;;;;4859049;29;20400;-77
2021/01/06 00:50:35;;;;;;;5.57;5.05;;;1.60;99.90;;;;;;4868808;29;20409;-77
2021/01/06 00:53:05;;;;;;;6.53;5.70;;;1.80;99.90;;;;;;4865484;29;20439;-77
2021/01/06 00:55:33;;;;;;;5.55;4.95;;;1.60;99.90;;;;;;4867156;29;20401;-76
2021/01/06 00:57:59;;;;;;;7.85;5.40;;;1.60;99.90;;;;;;4826560;29;20429;-76
2021/01/06 01:00:28;;;;;;;5.57;5.07;;;1.60;99.90;;;;;;4853992;29;20413;-76
2021/01/06 01:02:55;;;;;;;6.78;5.38;;;1.60;99.90;;;;;;4867802;29;20433;-76
2021/01/06 01:05:25;;;;;;;7.03;5.13;;;1.60;99.90;;;;;;4859658;29;20418;-76
2021/01/06 01:07:51;;;;;;;7.90;5.67;;;1.60;99.90;;;;;;4842540;28;20403;-77
2021/01/06 01:10:43;;;;;;;8.33;6.20;;;1.60;99.90;;;;;;4838775;29;20447;-77
2021/01/06 01:13:17;;;;;;;8.00;6.00;;;1.60;99.90;;;;;;4876207;28;20939;-76
2021/01/06 01:15:44;;;;;;;7.63;5.97;;;1.60;99.90;;;;;;4870429;28;20411;-78
2021/01/06 01:18:12;;;;;;;8.55;5.82;;;1.60;99.90;;;;;;4850274;29;20415;-77
2021/01/06 01:20:48;;;;;;;7.43;5.60;;;1.60;99.90;;;;;;4842827;29;20418;-77
2021/01/06 01:23:16;;;;;;;6.60;5.55;;;1.60;99.90;;;;;;4870893;28;20419;-77
2021/01/06 01:25:42;;;;;;;7.43;5.65;;;1.60;99.90;;;;;;4832003;29;20838;-76
2021/01/06 01:28:08;;;;;;;6.03;5.25;;;1.70;99.90;;;;;;4892872;28;20463;-76
2021/01/06 01:30:33;;;;;;;6.32;5.18;;;1.70;99.90;;;;;;4887279;28;20909;-75
2021/01/06 01:32:59;;;;;;;7.28;5.45;;;1.70;99.90;;;;;;4870353;29;20412;-77
2021/01/06 01:35:27;;;;;;;6.47;5.40;;;1.70;99.90;;;;;;4830374;29;20401;-77
2021/01/06 01:37:53;;;;;;;8.50;5.57;;;1.70;99.90;;;;;;4843378;29;20413;-77
2021/01/06 01:40:30;;;;;;;5.97;5.18;;;1.70;99.90;;;;;;4835630;29;20429;-77
2021/01/06 01:42:59;;;;;;;8.52;5.32;;;1.90;99.90;;;;;;4860225;29;20421;-77
2021/01/06 01:45:27;;;;;;;6.57;5.28;;;1.80;99.90;;;;;;4860159;29;20424;-77
2021/01/06 01:48:02;;;;;;;6.68;4.82;;;1.90;99.90;;;;;;4855602;28;20413;-77
2021/01/06 01:50:28;;;;;;;5.50;4.90;;;1.80;99.90;;;;;;4845724;29;20495;-78
2021/01/06 01:53:01;;;;;;;6.27;4.77;;;1.80;99.90;;;;;;4853539;29;20487;-77
2021/01/06 01:55:27;;;;;;;6.68;4.90;;;1.80;99.90;;;;;;4870120;29;20413;-76
2021/01/06 01:57:57;;;;;;;6.15;5.07;;;1.80;99.90;;;;;;4845018;29;20440;-77
2021/01/06 02:00:24;;;;;;;5.63;5.00;;;1.80;99.90;;;;;;4855651;29;20410;-77
2021/01/06 02:03:13;;;;;;;6.00;4.50;;;1.80;99.90;;;;;;4842873;29;20445;-78
2021/01/06 02:05:55;;;;;;;5.35;4.05;;;1.80;99.90;;;;;;4860338;29;20419;-76
2021/01/06 02:08:44;;;;;;;5.80;4.47;;;1.90;99.90;;;;;;4880976;29;20399;-77
2021/01/06 02:11:24;;;;;;;4.05;3.70;;;1.90;99.90;;;;;;4860793;29;20409;-77
2021/01/06 02:14:07;;;;;;;5.18;4.30;;;1.90;99.90;;;;;;4908891;28;20847;-76
2021/01/06 02:16:40;;;;;;;5.57;4.22;;;1.90;99.90;;;;;;4865947;28;20403;-77
2021/01/06 02:19:06;;;;;;;4.32;3.67;;;1.90;99.90;;;;;;4858774;29;20471;-77
2021/01/06 02:21:31;;;;;;;5.55;3.83;;;1.90;99.90;;;;;;4854081;29;20410;-77
2021/01/06 02:23:58;;;;;;;4.50;4.10;;;2.10;99.90;;;;;;4855889;29;20428;-78
2021/01/06 02:26:27;;;;;;;3.97;3.58;;;1.90;99.90;;;;;;4870265;28;20417;-79
2021/01/06 02:28:52;;;;;;;5.30;3.80;;;1.90;99.90;;;;;;4851238;28;20770;-77
2021/01/06 02:31:18;;;;;;;4.00;3.60;;;2.00;99.90;;;;;;4849110;28;20988;-77
2021/01/06 02:33:44;;;;;;;4.20;3.47;;;2.00;99.90;;;;;;4878640;28;20443;-77
2021/01/06 02:36:10;;;;;;;3.97;3.40;;;2.00;99.90;;;;;;4849486;29;20417;-77
2021/01/06 02:38:35;;;;;;;4.35;3.72;;;2.00;99.90;;;;;;4855286;29;20417;-77
2021/01/06 02:41:01;;;;;;;3.57;2.97;;;2.10;99.90;;;;;;4865653;29;20552;-78
2021/01/06 02:43:27;;;;;;;4.87;3.37;;;2.10;99.90;;;;;;4849271;29;20431;-77
2021/01/06 02:45:53;;;;;;;4.03;3.10;;;2.00;99.90;;;;;;4877473;28;20407;-77
2021/01/06 02:48:19;;;;;;;5.30;3.03;;;2.00;99.90;;;;;;4865686;29;20409;-78
2021/01/06 02:50:45;;;;;;;2.83;2.63;;;2.00;99.90;;;;;;4894204;28;20407;-78
2021/01/06 02:53:14;;;;;;;3.33;2.90;;;2.00;99.90;;;;;;4835625;29;20476;-77
2021/01/06 02:55:40;;;;;;;3.35;3.00;;;2.00;99.90;;;;;;4843969;29;21088;-77
2021/01/06 02:58:08;;;;;;;3.72;3.40;;;2.10;99.90;;;;;;4852279;29;20428;-77
2021/01/06 03:00:34;;;;;;;4.30;3.25;;;2.10;99.90;;;;;;4837795;29;20405;-77
2021/01/06 03:03:00;;;;;;;3.45;3.15;;;2.30;99.90;;;;;;4872665;28;20439;-77
2021/01/06 03:05:35;;;;;;;4.13;3.30;;;2.00;99.90;;;;;;4852988;29;20506;-77
2021/01/06 03:08:05;;;;;;;3.85;3.50;;;2.00;99.90;;;;;;4932826;28;20797;-77
2021/01/06 03:10:30;;;;;;;4.03;3.50;;;2.00;99.90;;;;;;4842264;29;20410;-76
2021/01/06 03:12:56;;;;;;;4.68;3.70;;;1.90;99.90;;;;;;4857279;29;20407;-77
2021/01/06 03:15:24;;;;;;;5.85;3.85;;;1.90;99.90;;;;;;4850459;28;20413;-76
2021/01/06 03:17:49;;;;;;;4.50;3.67;;;1.90;99.90;;;;;;4879005;28;20431;-77
2021/01/06 03:20:35;;;;;;;4.38;3.42;;;1.90;99.90;;;;;;4875225;28;20429;-76
2021/01/06 03:23:17;;;;;;;4.35;3.72;;;1.90;99.90;;;;;;4846096;29;20424;-78
2021/01/06 03:25:44;;;;;;;3.90;3.50;;;1.90;99.90;;;;;;4915475;28;20392;-77
2021/01/06 03:28:11;;;;;;;3.55;3.13;;;1.90;99.90;;;;;;4878721;28;20422;-77
2021/01/06 03:30:36;;;;;;;3.47;3.17;;;1.80;99.90;;;;;;4855432;28;20624;-77
2021/01/06 03:33:18;;;;;;;3.92;3.00;;;1.90;99.90;;;;;;4865483;29;20920;-78
2021/01/06 03:35:45;;;;;;;3.30;3.00;;;1.90;99.90;;;;;;4869343;28;20418;-78
2021/01/06 03:38:13;;;;;;;3.20;2.45;;;1.90;99.90;;;;;;4869654;28;20408;-77
2021/01/06 03:40:39;;;;;;;3.83;2.50;;;1.80;99.90;;;;;;4870683;28;20407;-77
2021/01/06 03:43:07;;;;;;;3.13;2.30;;;1.90;99.90;;;;;;4870718;29;20451;-77
2021/01/06 03:45:32;;;;;;;2.28;2.08;;;1.90;99.90;;;;;;4857014;29;20432;-78
2021/01/06 03:48:24;;;;;;;1.93;1.83;;;1.90;99.90;;;;;;4849070;29;20919;-79
2021/01/06 03:50:51;;;;;;;2.15;1.95;;;1.90;99.90;;;;;;4852527;29;20940;-78
2021/01/06 03:53:19;;;;;;;2.13;1.98;;;1.90;99.90;;;;;;4875525;28;20899;-78
2021/01/06 03:55:53;;;;;;;2.35;2.10;;;1.90;99.90;;;;;;4878919;28;20461;-79
2021/01/06 03:58:27;;;;;;;2.15;1.95;;;2.00;99.90;;;;;;4838694;29;20436;-77
2021/01/06 04:00:56;;;;;;;2.42;2.20;;;1.90;99.90;;;;;;4868617;28;20943;-78
2021/01/06 04:03:48;;;;;;;2.30;2.10;;;1.80;99.90;;;;;;4821278;29;20424;-78
2021/01/06 04:06:14;;;;;;;2.00;1.80;;;1.80;99.90;;;;;;4859915;29;20424;-78
2021/01/06 04:08:44;;;;;;;1.90;1.80;;;1.80;99.90;;;;;;4874263;29;20766;-78
2021/01/06 04:11:10;;;;;;;2.08;1.85;;;1.70;99.90;;;;;;4904174;28;20489;-78
2021/01/06 04:13:37;;;;;;;2.70;2.10;;;1.70;99.90;;;;;;4875469;29;20401;-79
2021/01/06 04:16:02;;;;;;;3.00;2.50;;;1.80;99.90;;;;;;4871732;29;20430;-78
2021/01/06 04:18:28;;;;;;;2.50;2.30;;;1.60;99.90;;;;;;4871934;29;20407;-78
2021/01/06 04:20:54;;;;;;;3.25;2.47;;;1.60;99.90;;;;;;4891472;28;20413;-79
2021/01/06 04:23:20;;;;;;;3.97;2.78;;;1.50;99.90;;;;;;4881894;28;20430;-79
2021/01/06 04:25:47;;;;;;;4.50;2.65;;;1.50;99.90;;;;;;4851244;29;21026;-82
2021/01/06 04:28:24;;;;;;;2.33;2.13;;;1.50;99.90;;;;;;4841902;29;20418;-79
2021/01/06 04:30:51;;;;;;;3.00;1.85;;;1.50;99.90;;;;;;4869255;29;20394;-77
2021/01/06 04:33:37;;;;;;;2.15;1.92;;;1.60;99.90;;;;;;4855702;29;20417;-78
2021/01/06 04:36:08;;;;;;;2.78;1.95;;;1.50;99.90;;;;;;4843420;29;20441;-78
2021/01/06 04:38:38;;;;;;;1.77;1.67;;;1.40;99.90;;;;;;4830257;29;20419;-79
2021/01/06 04:41:36;;;;;;;2.20;2.00;;;1.60;99.90;;;;;;4842992;28;20420;-78
2021/01/06 04:44:19;;;;;;;2.22;2.00;;;1.40;99.90;;;;;;4876452;28;20458;-79
2021/01/06 04:46:47;;;;;;;2.08;1.88;;;1.40;99.90;;;;;;4862748;29;20409;-78
2021/01/06 04:49:39;;;;;;;2.38;2.17;;;1.40;99.90;;;;;;4879071;28;20411;-79
2021/01/06 04:52:42;;;;;;;2.50;2.10;;;1.30;99.90;;;;;;4856558;29;20413;-78
2021/01/06 04:55:35;;;;;;;2.20;2.00;;;1.40;99.90;;;;;;4863502;28;20494;-78
2021/01/06 04:58:24;;;;;;;2.67;2.17;;;1.40;99.90;;;;;;4862134;29;20808;-78
2021/01/06 05:01:17;;;;;;;1.80;1.70;;;1.50;99.90;;;;;;4858478;29;20407;-78
2021/01/06 05:04:08;;;;;;;2.00;1.90;;;1.60;99.90;;;;;;4874832;29;20806;-80
2021/01/06 05:06:56;;;;;;;2.20;2.00;;;1.60;99.90;;;;;;4849020;29;20531;-80
2021/01/06 05:09:24;;;;;;;2.95;1.90;;;1.60;99.90;;;;;;4864658;29;20426;-78
2021/01/06 05:11:56;;;;;;;1.90;1.80;;;1.70;99.90;;;;;;4857736;28;20412;-78
2021/01/06 05:14:30;;;;;;;1.80;1.70;;;1.70;99.90;;;;;;4867486;29;20417;-78
2021/01/06 05:16:56;;;;;;;1.67;1.58;;;1.90;99.90;;;;;;4845629;28;20411;-79
2021/01/06 05:19:23;;;;;;;2.22;2.03;;;1.80;99.90;;;;;;4902653;28;20431;-78
2021/01/06 05:21:49;;;;;;;1.77;1.67;;;1.80;99.90;;;;;;4911718;28;20425;-78
2021/01/06 05:24:23;;;;;;;1.83;1.73;;;1.80;99.90;;;;;;4841386;29;20425;-78
2021/01/06 05:26:52;;;;;;;1.60;1.50;;;2.00;99.90;;;;;;4856097;28;20415;-79
2021/01/06 05:29:22;;;;;;;1.58;1.48;;;1.80;99.90;;;;;;4880739;29;20409;-78
2021/01/06 05:31:48;;;;;;;1.67;1.50;;;2.00;99.90;;;;;;4863386;29;20785;-77
2021/01/06 05:34:13;;;;;;;1.77;1.67;;;1.90;99.90;;;;;;4879687;28;20407;-78
2021/01/06 05:36:39;;;;;;;1.60;1.50;;;1.90;99.90;;;;;;4814219;29;21206;-78
2021/01/06 05:39:22;;;;;;;1.48;1.38;;;1.90;99.90;;;;;;4861171;29;20419;-77
2021/01/06 05:41:49;;;;;;;1.30;1.23;;;1.90;99.90;;;;;;4858512;29;20408;-78
2021/01/06 05:44:15;;;;;;;1.88;1.70;;;1.90;99.90;;;;;;4833893;29;20433;-80
2021/01/06 05:46:44;;;;;;;1.30;1.30;;;1.90;99.90;;;;;;4856082;29;20487;-80
2021/01/06 05:49:23;;;;;;;1.20;1.10;;;1.90;99.90;;;;;;4860020;29;20413;-78
2021/01/06 05:52:03;;;;;;;1.27;1.20;;;1.90;99.90;;;;;;4852101;29;20411;-78
2021/01/06 05:54:42;;;;;;;1.38;1.27;;;1.90;99.90;;;;;;4879551;28;20407;-78
2021/01/06 05:57:23;;;;;;;2.00;1.38;;;1.80;99.90;;;;;;4853940;29;20413;-78
2021/01/06 05:59:49;;;;;;;1.30;1.20;;;1.80;99.90;;;;;;4901427;28;20410;-78
2021/01/06 06:02:35;;;;;;;1.20;1.20;;;1.80;99.90;;;;;;4881173;28;20420;-80
2021/01/06 06:05:19;;;;;;;1.10;1.10;;;1.80;99.90;;;;;;4864003;29;20414;-78
2021/01/06 06:08:16;;;;;;;1.20;1.10;;;1.80;99.90;;;;;;4854514;29;20405;-78
2021/01/06 06:11:03;;;;;;;1.38;1.30;;;1.80;99.90;;;;;;4880002;28;20416;-79
2021/01/06 06:14:07;;;;;;;1.38;1.20;;;1.70;99.90;;;;;;4864613;29;20412;-78
2021/01/06 06:16:52;;;;;;;1.20;1.20;;;1.70;99.90;;;;;;4850232;29;20440;-78
2021/01/06 06:19:43;;;;;;;1.50;1.40;;;1.70;99.90;;;;;;4875661;28;20917;-79
2021/01/06 06:22:22;;;;;;;1.50;1.40;;;1.80;99.90;;;;;;4915877;28;20411;-78
2021/01/06 06:25:17;;;;;;;1.30;1.20;;;1.70;99.90;;;;;;4860667;29;20459;-79
2021/01/06 06:27:58;;;;;;;1.45;1.35;;;1.70;99.90;;;;;;4867922;29;20413;-79
2021/01/06 06:30:33;;;;;;;1.63;1.52;;;1.70;99.90;;;;;;4873302;28;20447;-80
2021/01/06 06:32:58;;;;;;;2.00;1.60;;;1.70;99.90;;;;;;4864905;28;20579;-79
2021/01/06 06:35:33;;;;;;;2.87;2.13;;;1.80;99.90;;;;;;4844469;29;20409;-78
2021/01/06 06:38:00;;;;;;;6.47;4.07;;;1.80;99.90;;;;;;4854339;29;20470;-80
2021/01/06 06:40:26;;;;;;;9.02;5.05;;;1.80;99.90;;;;;;4863820;28;20419;-79
2021/01/06 06:42:58;;;;;;;7.07;4.28;;;1.80;99.90;;;;;;4868830;29;20426;-78
2021/01/06 06:45:41;;;;;;;6.10;3.80;;;1.70;99.90;;;;;;4831614;29;20420;-80
2021/01/06 06:48:14;;;;;;;2.75;2.47;;;1.80;99.90;;;;;;4845755;29;20414;-79
2021/01/06 06:50:46;;;;;;;3.08;2.30;;;1.80;99.90;;;;;;4873059;29;20958;-80
2021/01/06 06:53:33;;;;;;;2.45;2.25;;;1.70;99.90;;;;;;4847493;29;20941;-77
2021/01/06 06:56:33;;;;;;;8.95;6.75;;;1.70;99.90;;;;;;4860920;29;20444;-77
2021/01/06 06:59:17;;;;;;;8.43;6.10;;;1.70;99.90;;;;;;4850965;28;20413;-79
2021/01/06 07:01:46;;;;;;;2.40;2.13;;;1.70;99.90;;;;;;4923489;28;20778;-79
2021/01/06 07:04:32;;;;;;;1.95;1.75;;;1.70;99.90;;;;;;4831163;29;21110;-80
2021/01/06 07:06:59;;;;;;;1.60;1.50;;;1.70;99.90;;;;;;4857078;29;20975;-79
2021/01/06 07:09:33;;;;;;;1.70;1.60;;;1.70;99.90;;;;;;4840018;29;20462;-79
2021/01/06 07:12:10;;;;;;;1.30;1.20;;;1.70;99.90;;;;;;4868095;28;20406;-78
2021/01/06 07:14:37;;;;;;;1.30;1.20;;;1.70;99.90;;;;;;4894129;28;20469;-79
2021/01/06 07:17:09;;;;;;;1.45;1.35;;;1.70;99.90;;;;;;4843006;29;20421;-79
2021/01/06 07:19:50;;;;;;;1.67;1.30;;;1.80;99.90;;;;;;4856523;29;20484;-79
2021/01/06 07:22:42;;;;;;;1.40;1.30;;;1.70;99.90;;;;;;4875788;29;20462;-80
2021/01/06 07:25:17;;;;;;;1.10;1.10;;;1.70;99.90;;;;;;4883237;28;20411;-78
2021/01/06 07:27:43;;;;;;;1.50;1.40;;;1.70;99.90;;;;;;4896000;28;20809;-79
2021/01/06 07:30:09;;;;;;;1.47;1.30;;;1.70;99.90;;;;;;4906355;28;20405;-76
2021/01/06 07:32:42;;;;;;;2.45;1.38;;;1.70;99.90;;;;;;4831239;28;21105;-77
2021/01/06 07:35:15;;;;;;;1.50;1.40;;;1.70;99.90;;;;;;4865363;29;20420;-76
2021/01/06 07:37:43;;;;;;;1.50;1.40;;;1.70;99.90;;;;;;4852818;29;20401;-77
2021/01/06 07:40:12;;;;;;;1.83;1.73;;;1.70;99.90;;;;;;4868471;29;20406;-76
2021/01/06 07:42:40;;;;;;;1.67;1.55;;;1.70;99.90;;;;;;4842715;29;20875;-77
2021/01/06 07:45:25;;;;;;;1.40;1.30;;;1.70;99.90;;;;;;4850551;28;20591;-78
2021/01/06 07:48:19;;;;;;;1.50;1.40;;;1.80;99.90;;;;;;4867065;29;20431;-77
2021/01/06 07:51:22;;;;;;;3.55;1.73;;;1.80;99.90;;;;;;4848468;29;20409;-77
2021/01/06 07:54:00;;;;;;;1.33;1.23;;;1.80;99.90;;;;;;4860096;28;20439;-77
2021/01/06 07:56:37;;;;;;;1.70;1.60;;;1.80;99.90;;;;;;4901300;28;21851;-77
2021/01/06 07:59:02;;;;;;;1.80;1.70;;;1.80;99.90;;;;;;4869829;29;20413;-78
2021/01/06 08:01:36;;;;;;;4.72;3.78;;;1.80;99.90;;;;;;4852445;29;20432;-77
2021/01/06 08:04:24;;;;;;;3.50;3.03;;;1.80;99.90;;;;;;4863786;28;20425;-78
2021/01/06 08:06:55;;;;;;;2.25;2.05;;;1.80;99.90;;;;;;4868406;29;20541;-77
2021/01/06 08:09:37;;;;;;;1.70;1.60;;;1.80;99.90;;;;;;4877977;28;20414;-77
2021/01/06 08:12:27;;;;;;;2.60;2.40;;;1.70;99.90;;;;;;4872007;29;20491;-77
2021/01/06 08:15:29;;;;;;;1.50;1.40;;;1.70;99.90;;;;;;4942048;28;20413;-77
2021/01/06 08:18:02;;;;;;;1.83;1.73;;;1.80;99.90;;;;;;4827968;29;21233;-77
2021/01/06 08:20:30;;;;;;;1.95;1.77;;;1.70;99.90;;;;;;4854260;29;20464;-77
2021/01/06 08:23:11;;;;;;;1.48;1.38;;;1.70;99.90;;;;;;4815544;29;20422;-78
2021/01/06 08:25:37;;;;;;;1.98;1.40;;;1.70;99.90;;;;;;4866082;29;20535;-77
2021/01/06 08:28:17;;;;;;;1.50;1.40;;;1.70;99.90;;;;;;4854988;28;20408;-78
2021/01/06 08:30:42;;;;;;;1.58;1.48;;;1.80;99.90;;;;;;4847099;29;20409;-76
2021/01/06 08:33:13;;;;;;;1.40;1.30;;;1.70;99.90;;;;;;4868611;29;20411;-77
2021/01/06 08:35:40;;;;;;;1.45;1.35;;;1.80;99.90;;;;;;4876978;29;20437;-77
2021/01/06 08:38:27;;;;;;;2.00;1.80;;;1.80;99.90;;;;;;4874623;28;20409;-77
2021/01/06 08:40:53;;;;;;;1.33;1.23;;;1.80;99.90;;;;;;4868501;29;20421;-77
2021/01/06 08:43:19;;;;;;;1.15;1.13;;;1.80;99.90;;;;;;4849311;29;20439;-77
2021/01/06 08:45:58;;;;;;;1.40;1.30;;;1.80;99.90;;;;;;4850924;28;20415;-77
2021/01/06 08:48:35;;;;;;;2.03;1.20;;;1.80;99.90;;;;;;4880228;28;20906;-77
2021/01/06 08:51:11;;;;;;;1.15;1.15;;;1.80;99.90;;;;;;4884105;28;21098;-77
2021/01/06 08:53:38;;;;;;;1.20;1.17;;;1.80;99.90;;;;;;4886295;28;20453;-77
2021/01/06 08:56:08;;;;;;;1.30;1.30;;;1.90;99.90;;;;;;4886098;28;20413;-76
2021/01/06 08:58:50;;;;;;;1.35;1.25;;;1.90;99.90;;;;;;4846486;29;20428;-77
2021/01/06 09:01:25;;;;;;;1.85;1.75;;;1.90;99.90;;;;;;4878140;28;20419;-78
2021/01/06 09:03:56;;;;;;;4.30;3.90;;;1.90;99.90;;;;;;4946661;28;20532;-79
2021/01/06 09:06:21;;;;;;;5.53;3.50;;;2.00;99.90;;;;;;4957220;28;21002;-79
2021/01/06 09:09:04;;;;;;;9.67;6.87;;;2.00;99.90;;;;;;4917275;28;20498;-78
2021/01/06 09:11:59;;;;;;;3.08;2.60;;;2.00;99.90;;;;;;4874866;28;20417;-79
2021/01/06 09:14:37;;;;;;;1.95;1.83;;;2.00;99.90;;;;;;4926954;28;20413;-78
2021/01/06 09:17:36;;;;;;;1.55;1.45;;;2.00;99.90;;;;;;4836089;29;20421;-78
2021/01/06 09:20:18;;;;;;;1.30;1.20;;;2.10;99.90;;;;;;4889607;28;20582;-78
2021/01/06 09:22:44;;;;;;;1.00;1.00;;;2.10;99.90;;;;;;4850408;28;20484;-78
2021/01/06 09:25:24;;;;;;;1.50;1.40;;;2.10;99.90;;;;;;4875893;28;20900;-78
2021/01/06 09:27:50;;;;;;;1.40;1.30;;;2.30;99.90;;;;;;4862155;28;20976;-78
2021/01/06 09:30:16;;;;;;;1.20;1.20;;;2.20;99.90;;;;;;4859446;28;20405;-77
2021/01/06 09:32:41;;;;;;;1.40;1.30;;;2.10;99.90;;;;;;4870235;29;20444;-78
2021/01/06 09:35:14;;;;;;;1.27;1.17;;;2.00;99.90;;;;;;4892107;28;20943;-77
2021/01/06 09:37:42;;;;;;;0.90;0.90;;;2.00;99.90;;;;;;4868922;28;20423;-77
2021/01/06 09:40:10;;;;;;;1.10;1.10;;;2.00;99.90;;;;;;4834683;29;20413;-77
2021/01/06 09:42:37;;;;;;;1.10;1.00;;;2.00;99.90;;;;;;4864469;28;20446;-77
2021/01/06 09:45:04;;;;;;;3.63;2.88;;;2.20;99.90;;;;;;4827769;29;20433;-76
2021/01/06 09:47:32;;;;;;;1.90;1.80;;;2.00;99.90;;;;;;4829041;29;20781;-77
2021/01/06 09:50:00;;;;;;;1.40;1.30;;;2.10;99.90;;;;;;4886551;29;20426;-77
2021/01/06 09:52:27;;;;;;;0.90;0.90;;;2.10;99.90;;;;;;4841042;29;20567;-77
2021/01/06 09:54:54;;;;;;;1.00;1.00;;;2.00;99.90;;;;;;4879706;28;20494;-77
2021/01/06 09:57:20;;;;;;;1.00;1.00;;;2.10;99.90;;;;;;4928142;28;20411;-77
2021/01/06 09:59:49;;;;;;;1.10;1.00;;;2.00;99.90;;;;;;4845242;29;20409;-77
2021/01/06 10:02:29;;;;;;;1.40;0.90;;;2.10;99.90;;;;;;4827293;29;20427;-76
2021/01/06 10:04:57;;;;;;;1.10;1.10;;;2.00;99.90;;;;;;4831281;29;21307;-77
2021/01/06 10:07:54;;;;;;;1.20;1.20;;;2.10;99.90;;;;;;4831089;29;20413;-76
2021/01/06 10:10:27;;;;;;;1.00;1.00;;;2.00;99.90;;;;;;4858630;29;20430;-77
2021/01/06 10:13:04;;;;;;;2.17;1.38;;;2.00;99.90;;;;;;4844721;28;20412;-77
2021/01/06 10:15:47;;;;;;;1.70;1.60;;;2.00;99.90;;;;;;4858774;28;20414;-76
2021/01/06 10:18:33;;;;;;;1.40;1.30;;;2.00;99.90;;;;;;4966510;28;20437;-77
2021/01/06 10:21:05;;;;;;;1.20;1.20;;;1.90;99.90;;;;;;4943844;28;20487;-77
2021/01/06 10:24:05;;;;;;;1.13;1.13;;;2.00;99.90;;;;;;4871369;29;20424;-77
2021/01/06 10:26:39;;;;;;;1.10;1.10;;;2.00;99.90;;;;;;4880346;28;20831;-77
2021/01/06 10:29:33;;;;;;;1.10;1.10;;;2.00;99.90;;;;;;4866255;29;20435;-77
2021/01/06 10:32:09;;;;;;;1.20;1.20;;;1.90;99.90;;;;;;4848102;29;20680;-77
2021/01/06 10:34:39;;;;;;;1.83;1.55;;;1.90;99.90;;;;;;4857713;29;20432;-77
2021/01/06 10:37:05;;;;;;;1.70;1.27;;;1.90;99.90;;;;;;4877003;28;20898;-77
2021/01/06 10:39:37;;;;;;;1.60;1.50;;;2.00;99.90;;;;;;4874732;29;21004;-76
2021/01/06 10:42:05;;;;;;;1.40;1.30;;;2.20;99.90;;;;;;4864102;29;20428;-76
2021/01/06 10:44:35;;;;;;;1.45;1.35;;;2.00;99.90;;;;;;4843623;29;20421;-75
2021/01/06 10:47:31;;;;;;;1.93;1.73;;;2.10;99.90;;;;;;4849265;29;20411;-76
2021/01/06 10:50:29;;;;;;;1.70;1.60;;;2.20;99.90;;;;;;4873334;28;20412;-77
2021/01/06 10:53:02;;;;;;;1.57;1.47;;;2.20;99.90;;;;;;4856752;28;20411;-76
2021/01/06 10:55:38;;;;;;;1.73;1.63;;;2.20;99.90;;;;;;4858615;29;20419;-77
2021/01/06 10:58:12;;;;;;;1.95;1.85;;;2.20;99.90;;;;;;4863221;29;20949;-76
2021/01/06 11:00:50;;;;;;;1.30;1.20;;;2.20;99.90;;;;;;4849947;29;20936;-77
2021/01/06 11:03:37;;;;;;;2.60;2.40;;;2.20;99.90;;;;;;4871141;29;20781;-76
2021/01/06 11:06:44;;;;;;;1.75;1.55;;;2.20;99.90;;;;;;4873114;28;20426;-77
2021/01/06 11:09:28;;;;;;;1.30;1.20;;;2.20;99.90;;;;;;4892652;29;20492;-78
2021/01/06 11:12:03;;;;;;;1.20;1.20;;;2.20;99.90;;;;;;4862451;29;20415;-77
2021/01/06 11:14:47;;;;;;;1.35;1.35;;;2.20;99.90;;;;;;4854484;29;20400;-78
2021/01/06 11:17:16;;;;;;;1.60;1.50;;;2.20;99.90;;;;;;4871109;28;20410;-78
2021/01/06 11:19:43;;;;;;;1.33;1.25;;;2.20;99.90;;;;;;4877518;29;20493;-77
2021/01/06 11:22:46;;;;;;;1.40;1.30;;;2.20;99.90;;;;;;4837057;29;20410;-78
2021/01/06 11:25:39;;;;;;;1.77;1.67;;;2.20;99.90;;;;;;4854077;28;20411;-78
2021/01/06 11:28:04;;;;;;;1.88;1.77;;;2.20;99.90;;;;;;4864187;29;20441;-80
2021/01/06 11:30:32;;;;;;;1.63;1.52;;;2.10;99.90;;;;;;4879420;28;20407;-78
2021/01/06 11:33:26;;;;;;;1.33;1.30;;;2.20;99.90;;;;;;4839215;28;20412;-77
2021/01/06 11:36:07;;;;;;;1.30;1.20;;;2.10;99.90;;;;;;4858667;29;20971;-78
2021/01/06 11:38:38;;;;;;;1.52;1.42;;;2.10;99.90;;;;;;4867236;29;20439;-78
2021/01/06 11:41:16;;;;;;;1.20;1.10;;;2.10;99.90;;;;;;4866206;28;20414;-78
2021/01/06 11:43:50;;;;;;;1.30;1.20;;;2.00;99.90;;;;;;4813620;29;20419;-78
2021/01/06 11:46:25;;;;;;;1.10;1.10;;;2.10;99.90;;;;;;4868163;29;20479;-78
2021/01/06 11:49:09;;;;;;;1.38;1.27;;;2.00;99.90;;;;;;4902159;28;20479;-79
2021/01/06 11:51:35;;;;;;;1.38;1.27;;;1.90;99.90;;;;;;4860814;29;21052;-79
2021/01/06 11:54:23;;;;;;;1.10;1.10;;;1.90;99.90;;;;;;4870960;28;20409;-79
2021/01/06 11:57:00;;;;;;;1.30;1.20;;;1.90;99.90;;;;;;4877632;29;20468;-78
2021/01/06 11:59:39;;;;;;;0.90;0.90;;;1.90;99.90;;;;;;4843176;28;20496;-79
2021/01/06 12:02:34;;;;;;;1.50;1.13;;;1.90;99.90;;;;;;4862937;29;20415;-79
2021/01/06 12:05:31;;;;;;;0.90;0.90;;;1.90;99.90;;;;;;4864203;29;20405;-78
2021/01/06 12:08:15;;;;;;;1.60;1.50;;;1.90;99.90;;;;;;4879961;28;20407;-80
2021/01/06 12:11:02;;;;;;;1.80;1.70;;;1.90;99.90;;;;;;4878091;29;20406;-78
2021/01/06 12:13:52;;;;;;;2.47;2.28;;;2.00;99.90;;;;;;4855289;29;20541;-78
2021/01/06 12:16:45;;;;;;;3.75;2.85;;;2.00;99.90;;;;;;4881795;28;20488;-79
2021/01/06 12:19:35;;;;;;;1.40;1.30;;;2.00;99.90;;;;;;4872988;29;20905;-78
2021/01/06 12:22:01;;;;;;;1.30;1.20;;;2.00;99.90;;;;;;4848092;29;20409;-78
2021/01/06 12:24:30;;;;;;;1.50;1.40;;;2.10;99.90;;;;;;4878238;28;20777;-77
2021/01/06 12:27:10;;;;;;;2.88;2.00;;;2.20;99.90;;;;;;4868935;28;20427;-78
2021/01/06 12:30:00;;;;;;;1.50;1.40;;;2.30;99.90;;;;;;4880771;28;20913;-78
2021/01/06 12:32:50;;;;;;;3.92;2.33;;;2.20;99.90;;;;;;4845989;29;20484;-78
2021/01/06 12:35:34;;;;;;;2.70;2.08;;;2.20;99.90;;;;;;4845480;29;20420;-79
2021/01/06 12:38:05;;;;;;;1.00;1.00;;;2.10;99.90;;;;;;4858375;29;20531;-78
2021/01/06 12:40:32;;;;;;;2.15;1.98;;;2.10;99.90;;;;;;4914029;28;20411;-78
2021/01/06 12:43:02;;;;;;;1.50;1.40;;;2.00;99.90;;;;;;4907306;28;20425;-78
2021/01/06 12:45:34;;;;;;;1.67;1.55;;;2.00;99.90;;;;;;4887631;28;20411;-78
2021/01/06 12:48:20;;;;;;;1.60;1.50;;;1.90;99.90;;;;;;4873022;28;20967;-79
2021/01/06 12:51:04;;;;;;;1.45;1.35;;;1.90;99.90;;;;;;4855257;29;20433;-79
2021/01/06 12:53:34;;;;;;;1.27;1.17;;;2.00;99.90;;;;;;4869895;29;20403;-78
2021/01/06 12:56:06;;;;;;;1.20;1.20;;;2.00;99.90;;;;;;4865869;29;20417;-78
2021/01/06 12:58:33;;;;;;;1.25;1.15;;;2.00;99.90;;;;;;4885093;29;20409;-77
2021/01/06 13:01:05;;;;;;;1.10;1.10;;;2.00;99.90;;;;;;4854704;29;20413;-78
2021/01/06 13:03:40;;;;;;;1.88;1.77;;;2.10;99.90;;;;;;4853096;29;20447;-76
2021/01/06 13:06:31;;;;;;;1.38;1.27;;;2.10;99.90;;;;;;4836779;29;20412;-77
2021/01/06 13:09:12;;;;;;;1.00;1.00;;;2.00;99.90;;;;;;4853569;29;20417;-79
2021/01/06 13:11:37;;;;;;;1.33;1.23;;;1.90;99.90;;;;;;4854579;29;20509;-79
2021/01/06 13:14:30;;;;;;;0.90;0.90;;;1.90;99.90;;;;;;4878775;28;20413;-78
2021/01/06 13:17:13;;;;;;;1.20;1.20;;;1.90;99.90;;;;;;4870374;29;20422;-78
2021/01/06 13:20:00;;;;;;;1.67;1.58;;;1.90;99.90;;;;;;4861178;29;20421;-78
2021/01/06 13:22:31;;;;;;;1.00;1.00;;;1.90;99.90;;;;;;4868754;29;20433;-79
2021/01/06 13:25:12;;;;;;;1.27;1.17;;;2.00;99.90;;;;;;4873766;28;20403;-77
2021/01/06 13:27:47;;;;;;;1.38;1.38;;;2.00;99.90;;;;;;4862589;28;20775;-78
2021/01/06 13:30:24;;;;;;;1.37;1.27;;;2.00;99.90;;;;;;4875539;28;20508;-78
2021/01/06 13:32:53;;;;;;;2.95;2.30;;;2.00;99.90;;;;;;4846770;29;20426;-77
2021/01/06 13:35:28;;;;;;;1.95;1.70;;;2.00;99.90;;;;;;4871834;29;20443;-77
2021/01/06 13:38:23;;;;;;;2.97;2.57;;;2.10;99.90;;;;;;4827500;29;20421;-78